createdAt,value
2018-12-08T00:02:06.816Z,100329.52
2018-12-08T00:05:31.680Z,100339.08
2018-12-08T00:08:56.462Z,100337.54
2018-12-08T00:12:21.118Z,100342.13
2018-12-08T00:15:45.819Z,100345.48
2018-12-08T00:19:10.538Z,100342.89
2018-12-08T00:22:35.221Z,100342.80
2018-12-08T00:26:00.013Z,100349.34
2018-12-08T00:29:28.234Z,100339.40
2018-12-08T00:32:52.960Z,100351.71
2018-12-08T00:36:17.626Z,100346.10
2018-12-08T00:39:44.606Z,100342.02
2018-12-08T00:43:09.322Z,100353.42
2018-12-08T00:46:34.028Z,100343.75
2018-12-08T00:49:58.671Z,100353.50
2018-12-08T00:53:23.544Z,100363.72
2018-12-08T00:56:48.277Z,100359.89
2018-12-08T01:00:13.489Z,100370.64
2018-12-08T01:03:38.290Z,100356.20
2018-12-08T01:07:02.990Z,100329.31
2018-12-08T01:10:27.682Z,100342.59
2018-12-08T01:13:52.429Z,100342.24
2018-12-08T01:17:17.149Z,100330.20
2018-12-08T01:20:41.827Z,100337.16
2018-12-08T01:24:06.517Z,100360.23
2018-12-08T01:27:31.239Z,100359.53
2018-12-08T01:30:55.886Z,100357.81
2018-12-08T01:34:20.574Z,100381.32
2018-12-08T01:37:45.288Z,100366.62
2018-12-08T01:41:09.937Z,100364.15
2018-12-08T01:44:34.670Z,100370.62
2018-12-08T01:47:59.349Z,100356.12
2018-12-08T01:51:24.057Z,100365.80
2018-12-08T01:54:48.740Z,100380.77
2018-12-08T01:58:13.455Z,100363.28
2018-12-08T02:01:38.160Z,100362.23
2018-12-08T02:05:02.788Z,100370.49
2018-12-08T02:08:27.489Z,100360.75
2018-12-08T02:11:52.174Z,100363.20
2018-12-08T02:15:16.828Z,100363.39
2018-12-08T02:18:41.548Z,100362.61
2018-12-08T02:22:06.206Z,100355.25
2018-12-08T02:25:30.934Z,100343.34
2018-12-08T02:28:55.652Z,100334.70
2018-12-08T02:32:20.350Z,100332.48
2018-12-08T02:35:45.151Z,100340.52
2018-12-08T02:39:09.842Z,100319.47
2018-12-08T02:42:34.532Z,100327.84
2018-12-08T02:45:59.243Z,100329.98
2018-12-08T02:49:23.972Z,100319.23
2018-12-08T02:52:48.719Z,100324.69
2018-12-08T02:56:13.402Z,100314.91
2018-12-08T02:59:38.262Z,100337.52
2018-12-08T03:03:02.957Z,100312.98
2018-12-08T03:06:27.682Z,100296.61
2018-12-08T03:09:52.372Z,100290.34
2018-12-08T03:13:17.766Z,100281.53
2018-12-08T03:16:42.487Z,100279.75
2018-12-08T03:20:07.337Z,100271.42
2018-12-08T03:23:32.030Z,100272.90
2018-12-08T03:26:56.739Z,100276.97
2018-12-08T03:30:21.429Z,100266.86
2018-12-08T03:33:46.102Z,100267.58
2018-12-08T03:37:10.782Z,100270.73
2018-12-08T03:40:35.482Z,100264.52
2018-12-08T03:44:00.160Z,100269.36
2018-12-08T03:47:24.887Z,100252.06
2018-12-08T03:50:49.529Z,100256.03
2018-12-08T03:54:14.200Z,100271.55
2018-12-08T03:57:38.887Z,100259.90
2018-12-08T04:01:03.555Z,100256.90
2018-12-08T04:04:28.295Z,100246.76
2018-12-08T04:07:52.961Z,100246.92
2018-12-08T04:11:17.647Z,100235.10
2018-12-08T04:14:42.277Z,100244.12
2018-12-08T04:18:06.970Z,100257.60
2018-12-08T04:21:31.838Z,100235.31
2018-12-08T04:24:56.508Z,100232.00
2018-12-08T04:28:21.140Z,100229.41
2018-12-08T04:31:45.853Z,100231.77
2018-12-08T04:35:10.540Z,100234.36
2018-12-08T04:38:35.282Z,100242.50
2018-12-08T04:41:59.973Z,100231.62
2018-12-08T04:45:24.623Z,100230.83
2018-12-08T04:48:49.288Z,100237.52
2018-12-08T04:52:13.965Z,100247.19
2018-12-08T04:55:38.770Z,100231.93
2018-12-08T04:59:03.548Z,100248.26
2018-12-08T05:02:28.327Z,100225.11
2018-12-08T05:05:53.083Z,100230.97
2018-12-08T05:09:17.909Z,100226.40
2018-12-08T05:12:42.584Z,100230.67
2018-12-08T05:16:07.289Z,100219.94
2018-12-08T05:19:31.962Z,100211.75
2018-12-08T05:22:56.656Z,100206.83
2018-12-08T05:26:21.368Z,100193.24
2018-12-08T05:29:46.098Z,100201.75
2018-12-08T05:33:10.914Z,100184.38
2018-12-08T05:36:35.814Z,100192.31
2018-12-08T05:40:00.488Z,100184.14
2018-12-08T05:43:28.278Z,100197.23
2018-12-08T05:46:53.600Z,100189.28
2018-12-08T05:50:18.294Z,100193.46
2018-12-08T05:53:43.047Z,100194.95
2018-12-08T05:57:07.759Z,100186.63
2018-12-08T06:00:32.826Z,100185.70
2018-12-08T06:03:57.547Z,100197.87
2018-12-08T06:07:22.277Z,100182.27
2018-12-08T06:10:46.953Z,100189.80
2018-12-08T06:14:11.636Z,100171.53
2018-12-08T06:17:36.327Z,100176.03
2018-12-08T06:21:00.999Z,100158.50
2018-12-08T06:24:25.658Z,100159.75
2018-12-08T06:28:17.346Z,100183.13
2018-12-08T06:31:42.021Z,100173.34
2018-12-08T06:35:06.931Z,100179.69
2018-12-08T06:38:32.452Z,100167.38
2018-12-08T06:41:57.153Z,100154.69
2018-12-08T06:45:21.971Z,100142.18
2018-12-08T06:48:46.731Z,100154.31
2018-12-08T06:52:12.207Z,100153.45
2018-12-08T06:55:37.001Z,100157.11
2018-12-08T06:59:01.690Z,100159.80
2018-12-08T07:02:26.364Z,100177.00
2018-12-08T07:05:51.084Z,100155.39
2018-12-08T07:09:15.868Z,100161.73
2018-12-08T07:12:40.632Z,100164.77
2018-12-08T07:16:05.480Z,100172.12
2018-12-08T07:19:30.128Z,100163.91
2018-12-08T07:22:54.884Z,100152.91
2018-12-08T07:26:19.605Z,100163.20
2018-12-08T07:29:44.346Z,100161.14
2018-12-08T07:33:09.035Z,100167.38
2018-12-08T07:36:33.765Z,100164.03
2018-12-08T07:39:58.386Z,100170.77
2018-12-08T07:43:23.044Z,100169.67
2018-12-08T07:46:47.742Z,100163.40
2018-12-08T07:50:12.632Z,100158.27
2018-12-08T07:53:37.340Z,100161.86
2018-12-08T07:57:01.992Z,100156.86
2018-12-08T08:00:26.680Z,100166.14
2018-12-08T08:03:51.739Z,100156.50
2018-12-08T08:07:16.451Z,100147.45
2018-12-08T08:10:41.105Z,100153.83
2018-12-08T08:14:05.907Z,100141.56
2018-12-08T08:17:30.542Z,100136.09
2018-12-08T08:20:55.174Z,100129.34
2018-12-08T08:24:19.832Z,100130.64
2018-12-08T08:27:44.579Z,100118.52
2018-12-08T08:31:09.279Z,100119.95
2018-12-08T08:34:34.026Z,100118.05
2018-12-08T08:37:59.927Z,100115.63
2018-12-08T08:41:24.631Z,100145.27
2018-12-08T08:44:49.365Z,100118.08
2018-12-08T08:48:14.110Z,100098.09
2018-12-08T08:51:38.828Z,100095.03
2018-12-08T08:55:03.553Z,100115.44
2018-12-08T08:58:28.914Z,100119.98
2018-12-08T09:01:53.607Z,100112.98
2018-12-08T09:05:18.381Z,100103.73
2018-12-08T09:08:43.082Z,100102.47
2018-12-08T09:12:07.834Z,100099.34
2018-12-08T09:15:32.553Z,100099.23
2018-12-08T09:18:57.404Z,100106.48
2018-12-08T09:22:22.109Z,100090.75
2018-12-08T09:25:46.865Z,100088.55
2018-12-08T09:29:11.598Z,100086.38
2018-12-08T09:32:36.408Z,100094.89
2018-12-08T09:36:01.051Z,100113.22
2018-12-08T09:39:25.778Z,100080.20
2018-12-08T09:42:50.463Z,100088.58
2018-12-08T09:46:15.131Z,100102.08
2018-12-08T09:49:39.983Z,100090.16
2018-12-08T09:53:17.099Z,100084.34
2018-12-08T09:56:41.838Z,100104.50
2018-12-08T10:00:07.236Z,100100.63
2018-12-08T10:03:32.184Z,100099.17
2018-12-08T10:06:56.881Z,100102.86
2018-12-08T10:10:21.592Z,100090.84
2018-12-08T10:13:46.310Z,100101.70
2018-12-08T10:17:10.991Z,100111.09
2018-12-08T10:20:35.913Z,100110.77
2018-12-08T10:24:00.644Z,100111.41
2018-12-08T10:27:25.372Z,100104.77
2018-12-08T10:30:50.070Z,100112.29
2018-12-08T10:34:14.840Z,100101.31
2018-12-08T10:37:40.576Z,100107.27
2018-12-08T10:41:05.370Z,100112.94
2018-12-08T10:44:30.111Z,100133.80
2018-12-08T10:47:54.785Z,100110.73
2018-12-08T10:51:19.514Z,100118.63
2018-12-08T10:54:44.232Z,100129.55
2018-12-08T10:58:08.925Z,100117.32
2018-12-08T11:01:38.823Z,100106.62
2018-12-08T11:05:03.586Z,100102.61
2018-12-08T11:08:28.285Z,100105.27
2018-12-08T11:11:53.031Z,100113.08
2018-12-08T11:15:17.758Z,100123.61
2018-12-08T11:18:43.045Z,100148.39
2018-12-08T11:22:07.827Z,100132.74
2018-12-08T11:25:32.580Z,100128.89
2018-12-08T11:28:57.323Z,100111.11
2018-12-08T11:32:25.111Z,100117.75
2018-12-08T11:35:49.917Z,100119.48
2018-12-08T11:39:14.736Z,100119.91
2018-12-08T11:42:39.488Z,100120.08
2018-12-08T11:46:04.299Z,100113.41
2018-12-08T11:49:29.068Z,100129.80
2018-12-08T11:52:53.738Z,100124.48
2018-12-08T11:56:18.404Z,100121.13
2018-12-08T11:59:43.128Z,100120.08
2018-12-08T12:03:07.806Z,100120.95
2018-12-08T12:06:32.552Z,100122.34
2018-12-08T12:09:57.272Z,100115.16
2018-12-08T12:13:21.960Z,100176.03
2018-12-08T12:16:46.682Z,100126.98
2018-12-08T12:20:11.445Z,100125.91
2018-12-08T12:23:36.105Z,100111.59
2018-12-08T12:27:00.850Z,100103.27
2018-12-08T12:30:25.727Z,100098.59
2018-12-08T12:33:50.400Z,100103.80
2018-12-08T12:37:15.116Z,100104.03
2018-12-08T12:40:39.875Z,100094.27
2018-12-08T12:44:04.636Z,100102.99
2018-12-08T12:47:29.381Z,100106.88
2018-12-08T12:50:54.071Z,100115.96
2018-12-08T12:54:18.923Z,100102.69
2018-12-08T12:57:44.176Z,100097.08
2018-12-08T13:01:09.094Z,100117.72
2018-12-08T13:04:33.780Z,100114.98
2018-12-08T13:07:58.465Z,100119.49
2018-12-08T13:11:23.215Z,100116.68
2018-12-08T13:14:47.897Z,100115.23
2018-12-08T13:18:12.562Z,100119.17
2018-12-08T13:21:37.954Z,100116.80
2018-12-08T13:25:25.235Z,100115.53
2018-12-08T13:28:49.900Z,100119.00
2018-12-08T13:32:14.734Z,100123.78
2018-12-08T13:35:58.660Z,100127.91
2018-12-08T13:39:23.466Z,100122.31
2018-12-08T13:42:48.139Z,100137.31
2018-12-08T13:46:12.973Z,100119.25
2018-12-08T13:49:37.702Z,100122.73
2018-12-08T13:53:02.402Z,100124.45
2018-12-08T13:56:27.103Z,100121.87
2018-12-08T13:59:56.355Z,100113.89
2018-12-08T14:03:20.997Z,100098.09
2018-12-08T14:06:45.721Z,100090.63
2018-12-08T14:10:10.488Z,100102.32
2018-12-08T14:13:35.181Z,100100.20
2018-12-08T14:16:59.880Z,100097.45
2018-12-08T14:20:29.804Z,100083.98
2018-12-08T14:23:54.470Z,100087.41
2018-12-08T14:27:19.324Z,100081.81
2018-12-08T14:30:44.125Z,100085.63
2018-12-08T14:34:09.114Z,100089.43
2018-12-08T14:37:33.852Z,100086.95
2018-12-08T14:40:58.597Z,100088.80
2018-12-08T14:44:23.919Z,100086.10
2018-12-08T14:47:48.679Z,100084.48
2018-12-08T14:51:13.390Z,100083.36
2018-12-08T14:54:38.113Z,100082.31
2018-12-08T14:58:03.870Z,100086.48
2018-12-08T15:01:28.938Z,100070.59
2018-12-08T15:04:53.641Z,100070.41
2018-12-08T15:08:18.476Z,100069.81
2018-12-08T15:11:43.187Z,100068.59
2018-12-08T15:15:09.932Z,100061.51
2018-12-08T15:18:34.675Z,100069.94
2018-12-08T15:21:59.369Z,100069.50
2018-12-08T15:25:24.050Z,100067.48
2018-12-08T15:28:48.840Z,100070.59
2018-12-08T15:32:14.666Z,100063.59
2018-12-08T15:35:39.400Z,100057.45
2018-12-08T15:39:06.853Z,100049.77
2018-12-08T15:42:31.615Z,100059.63
2018-12-08T15:45:56.393Z,100043.02
2018-12-08T15:49:21.203Z,100044.47
2018-12-08T15:52:45.924Z,100038.68
2018-12-08T15:56:10.635Z,100040.78
2018-12-08T15:59:35.431Z,100042.10
2018-12-08T16:03:00.183Z,100031.98
2018-12-08T16:06:25.062Z,100027.89
2018-12-08T16:09:49.797Z,100020.44
2018-12-08T16:13:14.435Z,100010.28
2018-12-08T16:16:39.135Z,100011.95
2018-12-08T16:20:03.997Z,99994.69
2018-12-08T16:23:28.732Z,99994.39
2018-12-08T16:26:53.477Z,99978.42
2018-12-08T16:30:18.242Z,99993.03
2018-12-08T16:33:42.992Z,99972.30
2018-12-08T16:37:07.758Z,99967.18
2018-12-08T16:40:32.518Z,99975.23
2018-12-08T16:43:57.260Z,99957.64
2018-12-08T16:47:22.015Z,99952.70
2018-12-08T16:50:46.774Z,99943.60
2018-12-08T16:54:11.705Z,99926.08
2018-12-08T16:57:36.450Z,99914.22
2018-12-08T17:01:01.924Z,99921.95
2018-12-08T17:04:26.748Z,99913.59
2018-12-08T17:07:51.477Z,99895.58
2018-12-08T17:11:16.208Z,99892.31
2018-12-08T17:14:40.914Z,99894.39
2018-12-08T17:18:05.706Z,99871.12
2018-12-08T17:21:30.501Z,99871.61
2018-12-08T17:24:55.287Z,99867.95
2018-12-08T17:28:19.970Z,99860.86
2018-12-08T17:31:44.707Z,99858.91
2018-12-08T17:35:09.538Z,99850.81
2018-12-08T17:38:34.260Z,99841.64
2018-12-08T17:41:58.946Z,99828.29
2018-12-08T17:45:23.768Z,99806.88
2018-12-08T17:48:48.468Z,99805.66
2018-12-08T17:52:13.367Z,99793.55
2018-12-08T17:55:38.095Z,99780.69
2018-12-08T17:59:03.223Z,99767.31
2018-12-08T18:02:28.122Z,99775.45
2018-12-08T18:05:52.863Z,99750.84
2018-12-08T18:09:17.586Z,99740.80
2018-12-08T18:12:42.314Z,99741.19
2018-12-08T18:16:07.026Z,99726.38
2018-12-08T18:19:31.700Z,99719.98
2018-12-08T18:22:56.496Z,99696.70
2018-12-08T18:26:21.474Z,99693.59
2018-12-08T18:29:46.172Z,99698.50
2018-12-08T18:33:10.936Z,99687.25
2018-12-08T18:36:35.616Z,99679.63
2018-12-08T18:40:00.249Z,99657.70
2018-12-08T18:43:24.962Z,99636.13
2018-12-08T18:46:49.818Z,99634.36
2018-12-08T18:50:14.665Z,99628.98
2018-12-08T18:53:39.399Z,99607.54
2018-12-08T18:57:04.080Z,99603.19
2018-12-08T19:00:28.821Z,99612.44
2018-12-08T19:03:53.707Z,99587.48
2018-12-08T19:07:18.368Z,99575.15
2018-12-08T19:10:43.034Z,99546.98
2018-12-08T19:14:07.716Z,99538.45
2018-12-08T19:17:32.380Z,99518.41
2018-12-08T19:20:57.016Z,99513.59
2018-12-08T19:24:21.678Z,99508.13
2018-12-08T19:27:46.400Z,99504.24
2018-12-08T19:31:11.186Z,99477.75
2018-12-08T19:34:35.893Z,99449.06
2018-12-08T19:38:00.584Z,99445.51
2018-12-08T19:41:25.265Z,99428.50
2018-12-08T19:44:49.931Z,99448.87
2018-12-08T19:48:14.563Z,99420.91
2018-12-08T19:51:39.222Z,99399.11
2018-12-08T19:55:03.890Z,99398.66
2018-12-08T19:58:28.667Z,99380.26
2018-12-08T20:01:53.383Z,99366.38
2018-12-08T20:05:18.074Z,99368.80
2018-12-08T20:08:42.741Z,99352.36
2018-12-08T20:12:07.541Z,99336.20
2018-12-08T20:15:32.375Z,99358.73
2018-12-08T20:18:57.055Z,99350.52
2018-12-08T20:22:21.738Z,99313.55
2018-12-08T20:25:46.484Z,99295.45
2018-12-08T20:29:11.443Z,99284.11
2018-12-08T20:32:36.150Z,99285.72
2018-12-08T20:36:01.138Z,99396.30
2018-12-08T20:39:25.874Z,99342.25
2018-12-08T20:42:50.635Z,99320.76
2018-12-08T20:46:15.318Z,99308.84
2018-12-08T20:49:39.945Z,99301.16
2018-12-08T20:53:04.642Z,99282.23
2018-12-08T20:56:29.469Z,99271.42
2018-12-08T20:59:54.235Z,99258.25
2018-12-08T21:03:19.605Z,99244.01
2018-12-08T21:06:44.546Z,99262.30
2018-12-08T21:10:10.196Z,99268.41
2018-12-08T21:13:34.904Z,99251.26
2018-12-08T21:16:59.791Z,99270.30
2018-12-08T21:20:24.624Z,99244.31
2018-12-08T21:23:49.327Z,99246.85
2018-12-08T21:27:14.039Z,99239.92
2018-12-08T21:30:38.728Z,99241.58
2018-12-08T21:34:03.583Z,99250.90
2018-12-08T21:37:28.303Z,99263.18
2018-12-08T21:40:53.034Z,99243.22
2018-12-08T21:44:17.749Z,99247.19
2018-12-08T21:47:42.477Z,99235.09
2018-12-08T21:51:07.179Z,99225.34
2018-12-08T21:54:31.845Z,99225.84
2018-12-08T21:57:56.499Z,99221.79
2018-12-08T22:01:21.254Z,99217.81
2018-12-08T22:04:46.115Z,99235.06
2018-12-08T22:08:11.116Z,99232.07
2018-12-08T22:11:35.870Z,99247.19
2018-12-08T22:15:03.443Z,99233.02
2018-12-08T22:18:28.065Z,99219.24
2018-12-08T22:21:52.866Z,99216.69
2018-12-08T22:25:17.582Z,99214.35
2018-12-08T22:28:42.429Z,99193.98
2018-12-08T22:32:07.169Z,99185.13
2018-12-08T22:35:31.912Z,99185.55
2018-12-08T22:38:56.639Z,99192.58
2018-12-08T22:42:21.414Z,99199.58
2018-12-08T22:45:46.100Z,99201.28
2018-12-08T22:49:10.806Z,99189.09
2018-12-08T22:52:35.441Z,99194.78
2018-12-08T22:56:00.068Z,99202.08
2018-12-08T22:59:24.949Z,99196.48
2018-12-08T23:02:51.671Z,99196.75
2018-12-08T23:06:16.363Z,99193.64
2018-12-08T23:09:41.017Z,99185.83
2018-12-08T23:13:05.737Z,99204.91
2018-12-08T23:16:30.541Z,99199.71
2018-12-08T23:19:55.186Z,99192.55
2018-12-08T23:23:20.517Z,99184.44
2018-12-08T23:26:45.856Z,99184.26
2018-12-08T23:30:11.054Z,99165.43
2018-12-08T23:33:35.782Z,99175.23
2018-12-08T23:37:00.555Z,99169.19
2018-12-08T23:40:25.367Z,99158.62
2018-12-08T23:43:50.100Z,99187.20
2018-12-08T23:47:14.952Z,99170.09
2018-12-08T23:50:40.573Z,99175.28
2018-12-08T23:54:05.299Z,99176.67
2018-12-08T23:57:29.977Z,99191.55
